North Woods Beach, Wisconsin
Current Conditions -  °F | °C
As of 11:53 AM on Thursday 27 Nov 2014 (Local Time) from KHYR Reporting Station
Clear Clear  
Wind Chill: -16°   Ceiling: Unl
Heat Index: -16°   Visibility: 10mi
Dew Point: -19°   Wind: 0mph
Humidity: 73%   Direction: NA
Pressure: 30.41"   Gusts: NA
Location:  46.0387°N, 91.2627°W
Report Text: KHYR 271753Z AUTO 00000KT 10SM CLR M16/M19 A3041 RMK AO2 SLP330 T11561194 11150 21211 58006
Loading
Personal Weather Stations






























Interactive Weather Map New forecast layout! Learn more

10-Day Weather Forecast

Advertisements
Track Severe Weather on mobile